KGRB/GRB METAR and TAF weather

Enter ICAO airport designator
Station Type Date Time Source
KGRB METAR 2019/02/21 15:53 UTC NOAA

KGRB 211553Z 26014G18KT 9SM CLR M05/M11 A3005 RMK AO2 SLP184 T10501111


Station Type Date Time Source
KGRB Decoded METAR 2019/02/21 15:53 UTC NOAA

AUSTIN STRAUBEL INTERNATIONAL AIRPORT , WI, United States (KGRB) 44-29N 088-08W 205M
Feb 21, 2019 - 10:53 AM EST / 2019.02.21 1553 UTC
Wind: from the W (260 degrees) at 16 MPH (14 KT) gusting to 21 MPH (18 KT):0
Visibility: 9 mile(s):0
Sky conditions: clear
Temperature: 23.0 F (-5.0 C)
Windchill: 10 F (-12 C):1
Dew Point: 12.0 F (-11.1 C)
Relative Humidity: 62%
Pressure (altimeter): 30.05 in. Hg (1017 hPa)
ob: KGRB 211553Z 26014G18KT 9SM CLR M05/M11 A3005 RMK AO2 SLP184 T10501111
cycle: 16

Station Type Date Time Source
KGRB TAF 2019/02/21 15:58 UTC NOAA

TAF
AMD KGRB 211458Z 2115/2212 26010G18KT P6SM SCT020
FM212200 26004KT P6SM SCT035


Example: see airport list